sensor_id;sensor_type;location;lat;lon;timestamp;temperature;humidity
17154;DHT22;8692;52.164;7.558;2023-07-31T00:00:09;17.10;99.90
17154;DHT22;8692;52.164;7.558;2023-07-31T00:02:37;17.10;99.90
17154;DHT22;8692;52.164;7.558;2023-07-31T00:05:05;17.10;99.90
17154;DHT22;8692;52.164;7.558;2023-07-31T00:07:34;17.10;99.90
17154;DHT22;8692;52.164;7.558;2023-07-31T00:10:03;17.00;99.90
17154;DHT22;8692;52.164;7.558;2023-07-31T00:12:31;17.00;99.90
17154;DHT22;8692;52.164;7.558;2023-07-31T00:14:59;17.00;99.90
17154;DHT22;8692;52.164;7.558;2023-07-31T00:17:27;17.00;99.90
17154;DHT22;8692;52.164;7.558;2023-07-31T00:19:55;16.90;99.90
17154;DHT22;8692;52.164;7.558;2023-07-31T00:22:23;16.90;99.90
17154;DHT22;8692;52.164;7.558;2023-07-31T00:24:53;16.90;99.90
17154;DHT22;8692;52.164;7.558;2023-07-31T00:27:21;16.90;99.90
17154;DHT22;8692;52.164;7.558;2023-07-31T00:29:50;16.90;99.90
17154;DHT22;8692;52.164;7.558;2023-07-31T00:32:17;16.90;99.90
17154;DHT22;8692;52.164;7.558;2023-07-31T00:34:46;16.90;99.90
17154;DHT22;8692;52.164;7.558;2023-07-31T00:37:14;16.90;99.90
17154;DHT22;8692;52.164;7.558;2023-07-31T00:39:42;16.80;99.90
17154;DHT22;8692;52.164;7.558;2023-07-31T00:42:11;16.80;99.90
17154;DHT22;8692;52.164;7.558;2023-07-31T00:44:39;16.70;99.90
17154;DHT22;8692;52.164;7.558;2023-07-31T00:47:07;16.80;99.90
17154;DHT22;8692;52.164;7.558;2023-07-31T00:49:35;16.80;99.90
17154;DHT22;8692;52.164;7.558;2023-07-31T00:52:04;16.80;99.90
17154;DHT22;8692;52.164;7.558;2023-07-31T00:54:32;16.70;99.90
17154;DHT22;8692;52.164;7.558;2023-07-31T00:57:00;16.70;99.90
17154;DHT22;8692;52.164;7.558;2023-07-31T00:59:29;16.70;99.90
17154;DHT22;8692;52.164;7.558;2023-07-31T01:01:57;16.60;99.90
17154;DHT22;8692;52.164;7.558;2023-07-31T01:04:26;16.60;99.90
17154;DHT22;8692;52.164;7.558;2023-07-31T01:06:59;16.50;99.90
17154;DHT22;8692;52.164;7.558;2023-07-31T01:09:34;16.50;99.90
17154;DHT22;8692;52.164;7.558;2023-07-31T01:12:04;16.50;99.90
17154;DHT22;8692;52.164;7.558;2023-07-31T01:14:35;16.40;99.90
17154;DHT22;8692;52.164;7.558;2023-07-31T01:17:04;16.30;99.90
17154;DHT22;8692;52.164;7.558;2023-07-31T01:19:32;16.30;99.90
17154;DHT22;8692;52.164;7.558;2023-07-31T01:22:15;16.30;99.90
17154;DHT22;8692;52.164;7.558;2023-07-31T01:25:00;16.30;99.90
17154;DHT22;8692;52.164;7.558;2023-07-31T01:27:35;16.30;99.90
17154;DHT22;8692;52.164;7.558;2023-07-31T01:30:09;16.30;99.90
17154;DHT22;8692;52.164;7.558;2023-07-31T01:32:42;16.40;99.90
17154;DHT22;8692;52.164;7.558;2023-07-31T01:35:11;16.30;99.90
17154;DHT22;8692;52.164;7.558;2023-07-31T01:37:40;16.40;99.90
17154;DHT22;8692;52.164;7.558;2023-07-31T01:40:09;16.40;99.90
17154;DHT22;8692;52.164;7.558;2023-07-31T01:42:39;16.30;99.90
17154;DHT22;8692;52.164;7.558;2023-07-31T01:45:08;16.40;99.90
17154;DHT22;8692;52.164;7.558;2023-07-31T01:47:36;16.30;99.90
17154;DHT22;8692;52.164;7.558;2023-07-31T01:50:05;16.30;99.90
17154;DHT22;8692;52.164;7.558;2023-07-31T01:52:33;16.30;99.90
17154;DHT22;8692;52.164;7.558;2023-07-31T01:55:01;16.20;99.90
17154;DHT22;8692;52.164;7.558;2023-07-31T01:57:29;16.30;99.90
17154;DHT22;8692;52.164;7.558;2023-07-31T01:59:59;16.30;99.90
17154;DHT22;8692;52.164;7.558;2023-07-31T02:02:37;16.30;99.90
17154;DHT22;8692;52.164;7.558;2023-07-31T02:05:06;16.30;99.90
17154;DHT22;8692;52.164;7.558;2023-07-31T02:07:34;16.20;99.90
17154;DHT22;8692;52.164;7.558;2023-07-31T02:10:02;16.20;99.90
17154;DHT22;8692;52.164;7.558;2023-07-31T02:12:30;16.30;99.90
17154;DHT22;8692;52.164;7.558;2023-07-31T02:15:02;16.20;99.90
17154;DHT22;8692;52.164;7.558;2023-07-31T02:17:30;16.20;99.90
17154;DHT22;8692;52.164;7.558;2023-07-31T02:20:00;16.20;99.90
17154;DHT22;8692;52.164;7.558;2023-07-31T02:22:29;16.20;99.90
17154;DHT22;8692;52.164;7.558;2023-07-31T02:24:57;16.30;99.90
17154;DHT22;8692;52.164;7.558;2023-07-31T02:27:25;16.20;99.90
17154;DHT22;8692;52.164;7.558;2023-07-31T02:29:54;16.30;99.90
17154;DHT22;8692;52.164;7.558;2023-07-31T02:32:24;16.30;99.90
17154;DHT22;8692;52.164;7.558;2023-07-31T02:34:52;16.30;99.90
17154;DHT22;8692;52.164;7.558;2023-07-31T02:37:19;16.30;99.90
17154;DHT22;8692;52.164;7.558;2023-07-31T02:39:47;16.30;99.90
17154;DHT22;8692;52.164;7.558;2023-07-31T02:42:15;16.20;99.90
17154;DHT22;8692;52.164;7.558;2023-07-31T02:44:43;16.20;99.90
17154;DHT22;8692;52.164;7.558;2023-07-31T02:47:11;16.30;99.90
17154;DHT22;8692;52.164;7.558;2023-07-31T02:49:41;16.30;99.90
17154;DHT22;8692;52.164;7.558;2023-07-31T02:52:09;16.30;99.90
17154;DHT22;8692;52.164;7.558;2023-07-31T02:54:37;16.20;99.90
17154;DHT22;8692;52.164;7.558;2023-07-31T02:57:05;16.20;99.90
17154;DHT22;8692;52.164;7.558;2023-07-31T02:59:33;16.30;99.90
17154;DHT22;8692;52.164;7.558;2023-07-31T03:02:01;16.30;99.90
17154;DHT22;8692;52.164;7.558;2023-07-31T03:04:29;16.30;99.90
17154;DHT22;8692;52.164;7.558;2023-07-31T03:06:58;16.30;99.90
17154;DHT22;8692;52.164;7.558;2023-07-31T03:09:26;16.30;99.90
17154;DHT22;8692;52.164;7.558;2023-07-31T03:11:54;16.40;99.90
17154;DHT22;8692;52.164;7.558;2023-07-31T03:14:22;16.40;99.90
17154;DHT22;8692;52.164;7.558;2023-07-31T03:16:53;16.40;99.90
17154;DHT22;8692;52.164;7.558;2023-07-31T03:19:21;16.50;99.90
17154;DHT22;8692;52.164;7.558;2023-07-31T03:21:49;16.50;99.90
17154;DHT22;8692;52.164;7.558;2023-07-31T03:24:19;16.50;99.90
17154;DHT22;8692;52.164;7.558;2023-07-31T03:26:47;16.60;99.90
17154;DHT22;8692;52.164;7.558;2023-07-31T03:29:15;16.60;99.90
17154;DHT22;8692;52.164;7.558;2023-07-31T03:31:43;16.60;99.90
17154;DHT22;8692;52.164;7.558;2023-07-31T03:34:11;16.70;99.90
17154;DHT22;8692;52.164;7.558;2023-07-31T03:36:39;16.70;99.90
17154;DHT22;8692;52.164;7.558;2023-07-31T03:39:09;16.60;99.90
17154;DHT22;8692;52.164;7.558;2023-07-31T03:41:38;16.70;99.90
17154;DHT22;8692;52.164;7.558;2023-07-31T03:44:06;16.70;99.90
17154;DHT22;8692;52.164;7.558;2023-07-31T03:46:34;16.70;99.90
17154;DHT22;8692;52.164;7.558;2023-07-31T03:49:03;16.70;99.90
17154;DHT22;8692;52.164;7.558;2023-07-31T03:51:31;16.70;99.90
17154;DHT22;8692;52.164;7.558;2023-07-31T03:54:00;16.70;99.90
17154;DHT22;8692;52.164;7.558;2023-07-31T03:56:28;16.70;99.90
17154;DHT22;8692;52.164;7.558;2023-07-31T03:58:57;16.70;99.90
17154;DHT22;8692;52.164;7.558;2023-07-31T04:01:25;16.70;99.90
17154;DHT22;8692;52.164;7.558;2023-07-31T04:03:53;16.70;99.90
17154;DHT22;8692;52.164;7.558;2023-07-31T04:06:21;16.60;99.90
17154;DHT22;8692;52.164;7.558;2023-07-31T04:08:50;16.60;99.90
17154;DHT22;8692;52.164;7.558;2023-07-31T04:11:18;16.60;99.90
17154;DHT22;8692;52.164;7.558;2023-07-31T04:13:46;16.60;99.90
17154;DHT22;8692;52.164;7.558;2023-07-31T04:16:15;16.60;99.90
17154;DHT22;8692;52.164;7.558;2023-07-31T04:18:43;16.60;99.90
17154;DHT22;8692;52.164;7.558;2023-07-31T04:21:11;16.60;99.90
17154;DHT22;8692;52.164;7.558;2023-07-31T04:23:39;16.60;99.90
17154;DHT22;8692;52.164;7.558;2023-07-31T04:26:07;16.60;99.90
17154;DHT22;8692;52.164;7.558;2023-07-31T04:28:35;16.60;99.90
17154;DHT22;8692;52.164;7.558;2023-07-31T04:31:03;16.60;99.90
17154;DHT22;8692;52.164;7.558;2023-07-31T04:33:33;16.60;99.90
17154;DHT22;8692;52.164;7.558;2023-07-31T04:36:01;16.60;99.90
17154;DHT22;8692;52.164;7.558;2023-07-31T04:38:28;16.60;99.90
17154;DHT22;8692;52.164;7.558;2023-07-31T04:40:56;16.60;99.90
17154;DHT22;8692;52.164;7.558;2023-07-31T04:43:25;16.50;99.90
17154;DHT22;8692;52.164;7.558;2023-07-31T04:45:53;16.60;99.90
17154;DHT22;8692;52.164;7.558;2023-07-31T04:48:21;16.60;99.90
17154;DHT22;8692;52.164;7.558;2023-07-31T04:50:50;16.60;99.90
17154;DHT22;8692;52.164;7.558;2023-07-31T04:53:19;16.50;99.90
17154;DHT22;8692;52.164;7.558;2023-07-31T04:55:47;16.50;99.90
17154;DHT22;8692;52.164;7.558;2023-07-31T04:58:15;16.50;99.90
17154;DHT22;8692;52.164;7.558;2023-07-31T05:00:43;16.50;99.90
17154;DHT22;8692;52.164;7.558;2023-07-31T05:03:11;16.50;99.90
17154;DHT22;8692;52.164;7.558;2023-07-31T05:05:39;16.50;99.90
17154;DHT22;8692;52.164;7.558;2023-07-31T05:08:08;16.50;99.90
17154;DHT22;8692;52.164;7.558;2023-07-31T05:10:36;16.50;99.90
17154;DHT22;8692;52.164;7.558;2023-07-31T05:13:04;16.60;99.90
17154;DHT22;8692;52.164;7.558;2023-07-31T05:15:32;16.50;99.90
17154;DHT22;8692;52.164;7.558;2023-07-31T05:18:00;16.50;99.90
17154;DHT22;8692;52.164;7.558;2023-07-31T05:20:28;16.50;99.90
17154;DHT22;8692;52.164;7.558;2023-07-31T05:22:56;16.50;99.90
17154;DHT22;8692;52.164;7.558;2023-07-31T05:25:25;16.50;99.90
17154;DHT22;8692;52.164;7.558;2023-07-31T05:27:53;16.50;99.90
17154;DHT22;8692;52.164;7.558;2023-07-31T05:30:21;16.50;99.90
17154;DHT22;8692;52.164;7.558;2023-07-31T05:32:49;16.50;99.90
17154;DHT22;8692;52.164;7.558;2023-07-31T05:35:17;16.50;99.90
17154;DHT22;8692;52.164;7.558;2023-07-31T05:37:45;16.50;99.90
17154;DHT22;8692;52.164;7.558;2023-07-31T05:40:14;16.40;99.90
17154;DHT22;8692;52.164;7.558;2023-07-31T05:42:44;16.50;99.90
17154;DHT22;8692;52.164;7.558;2023-07-31T05:45:12;16.40;99.90
17154;DHT22;8692;52.164;7.558;2023-07-31T05:47:40;16.40;99.90
17154;DHT22;8692;52.164;7.558;2023-07-31T05:50:09;16.50;99.90
17154;DHT22;8692;52.164;7.558;2023-07-31T05:52:37;16.50;99.90
17154;DHT22;8692;52.164;7.558;2023-07-31T05:55:05;16.50;99.90
17154;DHT22;8692;52.164;7.558;2023-07-31T05:57:35;16.50;99.90
17154;DHT22;8692;52.164;7.558;2023-07-31T06:00:06;16.50;99.90
17154;DHT22;8692;52.164;7.558;2023-07-31T06:02:34;16.50;99.90
17154;DHT22;8692;52.164;7.558;2023-07-31T06:05:04;16.50;99.90
17154;DHT22;8692;52.164;7.558;2023-07-31T06:07:33;16.50;99.90
17154;DHT22;8692;52.164;7.558;2023-07-31T06:10:01;16.40;99.90
17154;DHT22;8692;52.164;7.558;2023-07-31T06:12:31;16.40;99.90
17154;DHT22;8692;52.164;7.558;2023-07-31T06:15:00;16.40;99.90
17154;DHT22;8692;52.164;7.558;2023-07-31T06:17:29;16.50;99.90
17154;DHT22;8692;52.164;7.558;2023-07-31T06:19:57;16.50;99.90
17154;DHT22;8692;52.164;7.558;2023-07-31T06:22:25;16.50;99.90
17154;DHT22;8692;52.164;7.558;2023-07-31T06:24:53;16.50;99.90
17154;DHT22;8692;52.164;7.558;2023-07-31T06:27:21;16.50;99.90
17154;DHT22;8692;52.164;7.558;2023-07-31T06:29:49;16.50;99.90
17154;DHT22;8692;52.164;7.558;2023-07-31T06:32:17;16.50;99.90
17154;DHT22;8692;52.164;7.558;2023-07-31T06:34:46;16.60;99.90
17154;DHT22;8692;52.164;7.558;2023-07-31T06:37:15;16.50;99.90
17154;DHT22;8692;52.164;7.558;2023-07-31T06:39:43;16.60;99.90
17154;DHT22;8692;52.164;7.558;2023-07-31T06:42:11;16.60;99.90
17154;DHT22;8692;52.164;7.558;2023-07-31T06:44:39;16.60;99.90
17154;DHT22;8692;52.164;7.558;2023-07-31T06:47:07;16.60;99.90
17154;DHT22;8692;52.164;7.558;2023-07-31T06:49:35;16.60;99.90
17154;DHT22;8692;52.164;7.558;2023-07-31T06:52:05;16.70;99.90
17154;DHT22;8692;52.164;7.558;2023-07-31T06:54:33;16.70;99.90
17154;DHT22;8692;52.164;7.558;2023-07-31T06:57:01;16.70;99.90
17154;DHT22;8692;52.164;7.558;2023-07-31T06:59:30;16.70;99.90
17154;DHT22;8692;52.164;7.558;2023-07-31T07:01:58;16.70;99.90
17154;DHT22;8692;52.164;7.558;2023-07-31T07:04:26;16.70;99.90
17154;DHT22;8692;52.164;7.558;2023-07-31T07:06:54;16.70;99.90
17154;DHT22;8692;52.164;7.558;2023-07-31T07:09:23;16.70;99.90
17154;DHT22;8692;52.164;7.558;2023-07-31T07:11:51;16.70;99.90
17154;DHT22;8692;52.164;7.558;2023-07-31T07:14:19;16.70;99.90
17154;DHT22;8692;52.164;7.558;2023-07-31T07:16:50;16.70;99.90
17154;DHT22;8692;52.164;7.558;2023-07-31T07:19:19;16.70;99.90
17154;DHT22;8692;52.164;7.558;2023-07-31T07:21:46;16.70;99.90
17154;DHT22;8692;52.164;7.558;2023-07-31T07:24:14;16.80;99.90
17154;DHT22;8692;52.164;7.558;2023-07-31T07:26:44;16.80;99.90
17154;DHT22;8692;52.164;7.558;2023-07-31T07:29:12;16.70;99.90
17154;DHT22;8692;52.164;7.558;2023-07-31T07:31:40;16.70;99.90
17154;DHT22;8692;52.164;7.558;2023-07-31T07:34:08;16.70;99.90
17154;DHT22;8692;52.164;7.558;2023-07-31T07:36:36;16.80;99.90
17154;DHT22;8692;52.164;7.558;2023-07-31T07:39:04;16.70;99.90
17154;DHT22;8692;52.164;7.558;2023-07-31T07:41:32;16.80;99.90
17154;DHT22;8692;52.164;7.558;2023-07-31T07:44:02;16.80;99.90
17154;DHT22;8692;52.164;7.558;2023-07-31T07:46:30;16.80;99.90
17154;DHT22;8692;52.164;7.558;2023-07-31T07:48:58;16.80;99.90
17154;DHT22;8692;52.164;7.558;2023-07-31T07:51:26;16.80;99.90
17154;DHT22;8692;52.164;7.558;2023-07-31T07:53:54;16.80;99.90
17154;DHT22;8692;52.164;7.558;2023-07-31T07:56:22;16.80;99.90
17154;DHT22;8692;52.164;7.558;2023-07-31T07:58:53;16.80;99.90
17154;DHT22;8692;52.164;7.558;2023-07-31T08:01:22;16.90;99.90
17154;DHT22;8692;52.164;7.558;2023-07-31T08:03:50;16.90;99.90
17154;DHT22;8692;52.164;7.558;2023-07-31T08:06:18;16.90;99.90
17154;DHT22;8692;52.164;7.558;2023-07-31T08:08:46;17.00;99.90
17154;DHT22;8692;52.164;7.558;2023-07-31T08:11:14;17.00;99.90
17154;DHT22;8692;52.164;7.558;2023-07-31T08:13:42;17.00;99.90
17154;DHT22;8692;52.164;7.558;2023-07-31T08:16:10;17.10;99.90
17154;DHT22;8692;52.164;7.558;2023-07-31T08:18:40;17.10;99.90
17154;DHT22;8692;52.164;7.558;2023-07-31T08:21:09;17.10;99.90
17154;DHT22;8692;52.164;7.558;2023-07-31T08:23:37;17.10;99.90
17154;DHT22;8692;52.164;7.558;2023-07-31T08:26:05;17.20;99.90
17154;DHT22;8692;52.164;7.558;2023-07-31T08:28:33;17.20;99.90
17154;DHT22;8692;52.164;7.558;2023-07-31T08:31:03;17.20;99.90
17154;DHT22;8692;52.164;7.558;2023-07-31T08:33:31;17.20;99.90
17154;DHT22;8692;52.164;7.558;2023-07-31T08:36:00;17.20;99.90
17154;DHT22;8692;52.164;7.558;2023-07-31T08:38:29;17.20;99.90
17154;DHT22;8692;52.164;7.558;2023-07-31T08:40:57;17.20;99.90
17154;DHT22;8692;52.164;7.558;2023-07-31T08:43:26;17.20;99.90
17154;DHT22;8692;52.164;7.558;2023-07-31T08:45:54;17.30;99.90
17154;DHT22;8692;52.164;7.558;2023-07-31T08:48:23;17.30;99.90
17154;DHT22;8692;52.164;7.558;2023-07-31T08:50:52;17.40;99.90
17154;DHT22;8692;52.164;7.558;2023-07-31T08:53:22;17.40;99.90
17154;DHT22;8692;52.164;7.558;2023-07-31T08:55:52;17.40;99.90
17154;DHT22;8692;52.164;7.558;2023-07-31T08:58:21;17.40;99.90
17154;DHT22;8692;52.164;7.558;2023-07-31T09:00:49;17.50;99.90
17154;DHT22;8692;52.164;7.558;2023-07-31T09:03:22;17.50;99.90
17154;DHT22;8692;52.164;7.558;2023-07-31T09:05:51;17.50;99.90
17154;DHT22;8692;52.164;7.558;2023-07-31T09:08:21;17.50;99.90
17154;DHT22;8692;52.164;7.558;2023-07-31T09:10:49;17.50;99.90
17154;DHT22;8692;52.164;7.558;2023-07-31T09:13:18;17.50;99.90
17154;DHT22;8692;52.164;7.558;2023-07-31T09:15:46;17.50;99.90
17154;DHT22;8692;52.164;7.558;2023-07-31T09:18:14;17.50;99.90
17154;DHT22;8692;52.164;7.558;2023-07-31T09:20:45;17.50;99.90
17154;DHT22;8692;52.164;7.558;2023-07-31T09:23:13;17.60;99.90
17154;DHT22;8692;52.164;7.558;2023-07-31T09:25:45;17.60;99.90
17154;DHT22;8692;52.164;7.558;2023-07-31T09:28:13;17.60;99.90
17154;DHT22;8692;52.164;7.558;2023-07-31T09:30:46;17.60;99.90
17154;DHT22;8692;52.164;7.558;2023-07-31T09:33:15;17.60;99.90
17154;DHT22;8692;52.164;7.558;2023-07-31T09:35:43;17.60;99.90
17154;DHT22;8692;52.164;7.558;2023-07-31T09:38:13;17.60;99.90
17154;DHT22;8692;52.164;7.558;2023-07-31T09:40:43;17.70;99.90
17154;DHT22;8692;52.164;7.558;2023-07-31T09:43:16;17.60;99.90
17154;DHT22;8692;52.164;7.558;2023-07-31T09:45:45;17.60;99.90
17154;DHT22;8692;52.164;7.558;2023-07-31T09:48:15;17.70;99.90
17154;DHT22;8692;52.164;7.558;2023-07-31T09:50:44;17.70;99.90
17154;DHT22;8692;52.164;7.558;2023-07-31T09:53:13;17.70;99.90
17154;DHT22;8692;52.164;7.558;2023-07-31T09:55:42;17.60;99.90
17154;DHT22;8692;52.164;7.558;2023-07-31T09:58:11;17.60;99.90
17154;DHT22;8692;52.164;7.558;2023-07-31T10:00:40;17.60;99.90
17154;DHT22;8692;52.164;7.558;2023-07-31T10:03:10;17.60;99.90
17154;DHT22;8692;52.164;7.558;2023-07-31T10:05:40;17.60;99.90
17154;DHT22;8692;52.164;7.558;2023-07-31T10:08:10;17.60;99.90
17154;DHT22;8692;52.164;7.558;2023-07-31T10:10:41;17.60;99.90
17154;DHT22;8692;52.164;7.558;2023-07-31T10:13:10;17.70;99.90
17154;DHT22;8692;52.164;7.558;2023-07-31T10:15:39;17.70;99.90
17154;DHT22;8692;52.164;7.558;2023-07-31T10:18:09;17.70;99.90
17154;DHT22;8692;52.164;7.558;2023-07-31T10:20:38;17.80;99.90
17154;DHT22;8692;52.164;7.558;2023-07-31T10:23:06;17.80;99.90
17154;DHT22;8692;52.164;7.558;2023-07-31T10:25:35;17.80;99.90
17154;DHT22;8692;52.164;7.558;2023-07-31T10:28:04;17.80;99.90
17154;DHT22;8692;52.164;7.558;2023-07-31T10:30:33;17.90;99.90
17154;DHT22;8692;52.164;7.558;2023-07-31T10:33:05;17.90;99.90
17154;DHT22;8692;52.164;7.558;2023-07-31T10:35:35;17.90;99.90
17154;DHT22;8692;52.164;7.558;2023-07-31T10:38:10;17.90;99.90
17154;DHT22;8692;52.164;7.558;2023-07-31T10:40:39;17.90;99.90
17154;DHT22;8692;52.164;7.558;2023-07-31T10:43:07;17.90;99.90
17154;DHT22;8692;52.164;7.558;2023-07-31T10:45:39;18.00;99.90
17154;DHT22;8692;52.164;7.558;2023-07-31T10:48:13;17.90;99.90
17154;DHT22;8692;52.164;7.558;2023-07-31T10:50:48;17.90;99.90
17154;DHT22;8692;52.164;7.558;2023-07-31T10:53:23;18.00;99.90
17154;DHT22;8692;52.164;7.558;2023-07-31T10:55:52;18.00;99.90
17154;DHT22;8692;52.164;7.558;2023-07-31T10:58:21;18.00;99.90
17154;DHT22;8692;52.164;7.558;2023-07-31T11:00:51;18.10;99.90
17154;DHT22;8692;52.164;7.558;2023-07-31T11:03:26;18.10;99.90
17154;DHT22;8692;52.164;7.558;2023-07-31T11:06:01;18.10;99.90
17154;DHT22;8692;52.164;7.558;2023-07-31T11:08:32;18.20;99.90
17154;DHT22;8692;52.164;7.558;2023-07-31T11:11:07;18.20;99.90
17154;DHT22;8692;52.164;7.558;2023-07-31T11:13:41;18.20;99.90
17154;DHT22;8692;52.164;7.558;2023-07-31T11:16:10;18.30;99.90
17154;DHT22;8692;52.164;7.558;2023-07-31T11:18:39;18.30;99.90
17154;DHT22;8692;52.164;7.558;2023-07-31T11:21:12;18.20;99.90
17154;DHT22;8692;52.164;7.558;2023-07-31T11:23:40;18.20;99.90
17154;DHT22;8692;52.164;7.558;2023-07-31T11:26:08;18.30;99.90
17154;DHT22;8692;52.164;7.558;2023-07-31T11:28:37;18.20;99.90
17154;DHT22;8692;52.164;7.558;2023-07-31T11:31:08;18.20;99.90
17154;DHT22;8692;52.164;7.558;2023-07-31T11:33:36;18.20;99.90
17154;DHT22;8692;52.164;7.558;2023-07-31T11:36:05;18.20;99.90
17154;DHT22;8692;52.164;7.558;2023-07-31T11:38:34;18.20;99.90
17154;DHT22;8692;52.164;7.558;2023-07-31T11:41:03;18.20;99.90
17154;DHT22;8692;52.164;7.558;2023-07-31T11:43:32;18.20;99.90
17154;DHT22;8692;52.164;7.558;2023-07-31T11:46:00;18.20;99.90
17154;DHT22;8692;52.164;7.558;2023-07-31T11:48:31;18.30;99.90
17154;DHT22;8692;52.164;7.558;2023-07-31T11:51:03;18.30;99.90
17154;DHT22;8692;52.164;7.558;2023-07-31T11:53:35;18.30;99.90
17154;DHT22;8692;52.164;7.558;2023-07-31T11:56:04;18.30;99.90
17154;DHT22;8692;52.164;7.558;2023-07-31T11:58:34;18.30;99.90
17154;DHT22;8692;52.164;7.558;2023-07-31T12:01:03;18.30;99.90
17154;DHT22;8692;52.164;7.558;2023-07-31T12:03:32;18.30;99.90
17154;DHT22;8692;52.164;7.558;2023-07-31T12:06:00;18.30;99.90
17154;DHT22;8692;52.164;7.558;2023-07-31T12:08:30;18.30;99.90
17154;DHT22;8692;52.164;7.558;2023-07-31T12:11:04;18.30;99.90
17154;DHT22;8692;52.164;7.558;2023-07-31T12:13:33;18.30;99.90
17154;DHT22;8692;52.164;7.558;2023-07-31T12:16:03;18.30;99.90
17154;DHT22;8692;52.164;7.558;2023-07-31T12:18:34;18.30;99.90
17154;DHT22;8692;52.164;7.558;2023-07-31T12:21:04;18.30;99.90
17154;DHT22;8692;52.164;7.558;2023-07-31T12:23:33;18.30;99.90
17154;DHT22;8692;52.164;7.558;2023-07-31T12:26:04;18.30;99.90
17154;DHT22;8692;52.164;7.558;2023-07-31T12:28:35;18.30;99.90
17154;DHT22;8692;52.164;7.558;2023-07-31T12:31:05;18.30;99.90
17154;DHT22;8692;52.164;7.558;2023-07-31T12:33:34;18.30;99.90
17154;DHT22;8692;52.164;7.558;2023-07-31T12:36:03;18.30;99.90
17154;DHT22;8692;52.164;7.558;2023-07-31T12:38:32;18.40;99.90
17154;DHT22;8692;52.164;7.558;2023-07-31T12:41:00;18.40;99.90
17154;DHT22;8692;52.164;7.558;2023-07-31T12:43:29;18.50;99.90
17154;DHT22;8692;52.164;7.558;2023-07-31T12:45:57;18.50;99.90
17154;DHT22;8692;52.164;7.558;2023-07-31T12:48:25;18.50;99.90
17154;DHT22;8692;52.164;7.558;2023-07-31T12:50:53;18.60;99.90
17154;DHT22;8692;52.164;7.558;2023-07-31T12:53:21;18.60;99.90
17154;DHT22;8692;52.164;7.558;2023-07-31T12:55:49;18.70;99.90
17154;DHT22;8692;52.164;7.558;2023-07-31T12:58:17;18.70;99.90
17154;DHT22;8692;52.164;7.558;2023-07-31T13:00:47;18.70;99.90
17154;DHT22;8692;52.164;7.558;2023-07-31T13:03:15;18.70;99.90
17154;DHT22;8692;52.164;7.558;2023-07-31T13:05:43;18.70;99.90
17154;DHT22;8692;52.164;7.558;2023-07-31T13:08:11;18.80;99.90
17154;DHT22;8692;52.164;7.558;2023-07-31T13:10:40;18.80;99.90
17154;DHT22;8692;52.164;7.558;2023-07-31T13:13:09;18.90;99.90
17154;DHT22;8692;52.164;7.558;2023-07-31T13:15:37;18.80;99.90
17154;DHT22;8692;52.164;7.558;2023-07-31T13:18:06;18.90;99.90
17154;DHT22;8692;52.164;7.558;2023-07-31T13:20:34;18.90;99.90
17154;DHT22;8692;52.164;7.558;2023-07-31T13:23:02;18.90;99.90
17154;DHT22;8692;52.164;7.558;2023-07-31T13:25:30;18.80;99.90
17154;DHT22;8692;52.164;7.558;2023-07-31T13:27:58;18.80;99.90
17154;DHT22;8692;52.164;7.558;2023-07-31T13:30:29;18.70;99.90
17154;DHT22;8692;52.164;7.558;2023-07-31T13:32:57;18.70;99.90
17154;DHT22;8692;52.164;7.558;2023-07-31T13:35:27;18.70;99.90
17154;DHT22;8692;52.164;7.558;2023-07-31T13:37:55;18.70;99.90
17154;DHT22;8692;52.164;7.558;2023-07-31T13:40:22;18.60;99.90
17154;DHT22;8692;52.164;7.558;2023-07-31T13:42:50;18.60;99.90
17154;DHT22;8692;52.164;7.558;2023-07-31T13:45:19;18.60;99.90
17154;DHT22;8692;52.164;7.558;2023-07-31T13:47:47;18.60;99.90
17154;DHT22;8692;52.164;7.558;2023-07-31T13:50:15;18.70;99.90
17154;DHT22;8692;52.164;7.558;2023-07-31T13:52:44;18.70;99.90
17154;DHT22;8692;52.164;7.558;2023-07-31T13:55:12;18.70;99.90
17154;DHT22;8692;52.164;7.558;2023-07-31T13:57:40;18.80;99.90
17154;DHT22;8692;52.164;7.558;2023-07-31T14:00:10;18.90;99.90
17154;DHT22;8692;52.164;7.558;2023-07-31T14:02:38;19.00;99.90
17154;DHT22;8692;52.164;7.558;2023-07-31T14:05:07;19.00;99.90
17154;DHT22;8692;52.164;7.558;2023-07-31T14:07:36;19.10;99.90
17154;DHT22;8692;52.164;7.558;2023-07-31T14:10:06;19.20;99.90
17154;DHT22;8692;52.164;7.558;2023-07-31T14:12:34;19.20;99.90
17154;DHT22;8692;52.164;7.558;2023-07-31T14:15:10;19.30;99.90
17154;DHT22;8692;52.164;7.558;2023-07-31T14:17:38;19.30;99.90
17154;DHT22;8692;52.164;7.558;2023-07-31T14:20:08;19.40;99.90
17154;DHT22;8692;52.164;7.558;2023-07-31T14:22:37;19.40;99.90
17154;DHT22;8692;52.164;7.558;2023-07-31T14:25:07;19.40;99.90
17154;DHT22;8692;52.164;7.558;2023-07-31T14:27:37;19.40;99.90
17154;DHT22;8692;52.164;7.558;2023-07-31T14:30:06;19.40;99.90
17154;DHT22;8692;52.164;7.558;2023-07-31T14:32:34;19.50;99.90
17154;DHT22;8692;52.164;7.558;2023-07-31T14:35:04;19.50;99.90
17154;DHT22;8692;52.164;7.558;2023-07-31T14:37:37;19.50;99.90
17154;DHT22;8692;52.164;7.558;2023-07-31T14:40:08;19.60;99.90
17154;DHT22;8692;52.164;7.558;2023-07-31T14:42:37;19.60;99.90
17154;DHT22;8692;52.164;7.558;2023-07-31T14:45:06;19.70;99.90
17154;DHT22;8692;52.164;7.558;2023-07-31T14:47:34;19.70;99.90
17154;DHT22;8692;52.164;7.558;2023-07-31T14:50:03;19.80;99.90
17154;DHT22;8692;52.164;7.558;2023-07-31T14:52:31;19.80;99.90
17154;DHT22;8692;52.164;7.558;2023-07-31T14:54:59;19.80;99.90
17154;DHT22;8692;52.164;7.558;2023-07-31T14:57:29;19.80;99.90
17154;DHT22;8692;52.164;7.558;2023-07-31T14:59:57;19.80;99.90
17154;DHT22;8692;52.164;7.558;2023-07-31T15:02:25;19.70;99.90
17154;DHT22;8692;52.164;7.558;2023-07-31T15:04:53;19.70;99.90
17154;DHT22;8692;52.164;7.558;2023-07-31T15:07:21;19.70;99.90
17154;DHT22;8692;52.164;7.558;2023-07-31T15:09:49;19.70;99.90
17154;DHT22;8692;52.164;7.558;2023-07-31T15:12:17;19.60;99.90
17154;DHT22;8692;52.164;7.558;2023-07-31T15:14:47;19.60;99.90
17154;DHT22;8692;52.164;7.558;2023-07-31T15:17:16;19.60;99.90
17154;DHT22;8692;52.164;7.558;2023-07-31T15:19:44;19.50;99.90
17154;DHT22;8692;52.164;7.558;2023-07-31T15:22:12;19.40;99.90
17154;DHT22;8692;52.164;7.558;2023-07-31T15:24:40;19.30;99.90
17154;DHT22;8692;52.164;7.558;2023-07-31T15:27:08;19.30;99.90
17154;DHT22;8692;52.164;7.558;2023-07-31T15:29:36;19.30;99.90
17154;DHT22;8692;52.164;7.558;2023-07-31T15:32:06;19.30;99.90
17154;DHT22;8692;52.164;7.558;2023-07-31T15:34:34;19.20;99.90
17154;DHT22;8692;52.164;7.558;2023-07-31T15:37:03;19.30;99.90
17154;DHT22;8692;52.164;7.558;2023-07-31T15:39:31;19.20;99.90
17154;DHT22;8692;52.164;7.558;2023-07-31T15:41:59;19.20;99.90
17154;DHT22;8692;52.164;7.558;2023-07-31T15:44:27;19.10;99.90
17154;DHT22;8692;52.164;7.558;2023-07-31T15:46:55;19.00;99.90
17154;DHT22;8692;52.164;7.558;2023-07-31T15:49:24;19.00;99.90
17154;DHT22;8692;52.164;7.558;2023-07-31T15:51:52;19.00;99.90
17154;DHT22;8692;52.164;7.558;2023-07-31T15:54:20;19.00;99.90